Gunnison Bend Reservoir




Date Hourly Average Reservoir Capacity (AF) Canal Flow (cfs) Battery Voltage (V) Reservoir Height (ft) Gate Height 1 (ft) Gate Height 2 (ft)
09/01/2017 2,845 55.84 13.22 10.11 1.01 -0.03
09/02/2017 2,900 57.07 13.27 10.20 1.02 -0.03
09/03/2017 2,839 55.86 13.25 10.10 1.00 -0.03
09/04/2017 2,937 34.65 13.23 10.26 0.63 -0.03
09/05/2017 2,967 6.31 13.23 10.31 0.21 -0.03
09/06/2017 2,882 21.84 13.23 10.17 0.46 -0.03
09/07/2017 2,784 25.18 13.22 10.01 0.50 -0.03
09/08/2017 2,723 22.85 13.24 9.90 0.47 -0.03
09/09/2017 2,679 5.12 13.30 9.82 0.17 -0.03
09/10/2017 2,679 0.49 13.27 9.82 0.02 -0.03
09/11/2017 2,668 0.50 13.27 9.80 0.02 -0.03
09/12/2017 2,651 11.86 13.24 9.77 0.34 -0.03
09/13/2017 2,618 14.92 13.27 9.71 0.39 -0.03
09/14/2017 2,541 13.24 13.30 9.57 0.34 -0.03
09/15/2017 2,469 1.38 13.28 9.44 0.03 -0.03
09/16/2017 2,441 0.81 13.36 9.39 0.01 -0.03
09/17/2017 2,425 0.75 13.39 9.36 0.02 -0.03
09/18/2017 2,414 0.74 13.30 9.34 0.02 -0.03
09/19/2017 2,403 0.74 13.31 9.32 0.02 -0.03
09/20/2017 2,386 0.73 13.34 9.29 0.02 -0.03
09/21/2017 2,331 0.71 13.33 9.19 0.02 -0.03
09/22/2017 2,320 0.67 13.32 9.17 0.02 -0.03
09/23/2017 2,347 0.72 13.35 9.22 0.01 -0.03
09/24/2017 2,364 0.73 13.40 9.25 0.01 -0.03
09/25/2017 2,386 0.73 13.24 9.29 0.01 -0.03
09/26/2017 2,408 0.67 13.40 9.33 0.01 -0.03
09/27/2017 2,419 0.66 13.41 9.35 0.02 -0.03
09/28/2017 2,425 0.67 13.36 9.36 0.02 -0.03
09/29/2017 2,430 0.66 13.29 9.37 0.02 -0.03
09/30/2017 2,436 0.66 13.31 9.38 0.02 -0.03
Average 11.26
Maximum 57.07
Minimum 0.49
Total Volume (AF) 669.78